TimeCDT,TemperatureF,Dew PointF,Humidity,Sea Level PressureIn,VisibilityMPH,Wind Direction,Wind SpeedMPH,Gust SpeedMPH,PrecipitationIn,Events,Conditions,WindDirDegrees,DateUTC
12:53 AM,52.0,48.9,89,30.18,10.0,Calm,Calm,-,N/A,,Overcast,0,2012-10-12 05:53:00
1:53 AM,53.1,48.9,86,30.18,10.0,Calm,Calm,-,N/A,,Overcast,0,2012-10-12 06:53:00
2:20 AM,53.6,48.2,82,30.19,10.0,NNE,4.6,-,N/A,Thunderstorm,Thunderstorm,30,2012-10-12 07:20:00
2:53 AM,53.1,50.0,89,30.18,10.0,NNE,3.5,-,0.05,Thunderstorm,Thunderstorm,30,2012-10-12 07:53:00
3:08 AM,53.6,50.0,88,30.19,9.0,NNE,3.5,-,0.00,,Overcast,30,2012-10-12 08:08:00
3:37 AM,53.6,51.8,94,30.20,7.0,NNE,5.8,-,0.01,Rain-Thunderstorm,Light Rain,20,2012-10-12 08:37:00
3:53 AM,53.1,51.1,93,30.20,10.0,North,4.6,-,0.02,Thunderstorm,Thunderstorm,10,2012-10-12 08:53:00
4:02 AM,53.6,50.0,88,30.20,10.0,NNE,6.9,-,N/A,,Mostly Cloudy,30,2012-10-12 09:02:00
4:37 AM,53.6,50.0,88,30.21,10.0,NE,3.5,-,N/A,,Mostly Cloudy,40,2012-10-12 09:37:00
4:53 AM,53.1,50.0,89,30.20,10.0,Calm,Calm,-,N/A,,Overcast,0,2012-10-12 09:53:00
5:15 AM,53.6,51.8,94,30.21,9.0,East,3.5,-,0.01,Rain-Thunderstorm,Light Thunderstorms and Rain,100,2012-10-12 10:15:00
5:53 AM,53.1,51.1,93,30.21,8.0,ENE,3.5,-,0.02,Rain-Thunderstorm,Light Rain,60,2012-10-12 10:53:00
6:27 AM,53.6,51.8,94,30.24,8.0,Calm,Calm,-,0.03,Rain-Thunderstorm,Light Thunderstorms and Rain,0,2012-10-12 11:27:00
6:44 AM,53.6,51.8,94,30.23,6.0,NE,6.9,-,0.05,Rain,Light Rain,50,2012-10-12 11:44:00
6:53 AM,54.0,52.0,93,30.23,6.0,NNE,5.8,-,0.07,Rain-Thunderstorm,Light Rain,20,2012-10-12 11:53:00
7:53 AM,54.0,52.0,93,30.27,2.0,ESE,5.8,-,0.18,Rain,Heavy Rain,110,2012-10-12 12:53:00
8:11 AM,53.6,51.8,94,30.30,3.0,NNE,6.9,-,0.05,Rain,Rain,30,2012-10-12 13:11:00
8:21 AM,53.6,51.8,94,30.29,2.5,East,5.8,-,0.08,Rain,Rain,90,2012-10-12 13:21:00
8:53 AM,54.0,52.0,93,30.25,3.0,ESE,13.8,18.4,0.16,Rain-Thunderstorm,Rain,120,2012-10-12 13:53:00
9:06 AM,53.6,51.8,94,30.28,4.0,NNE,15.0,21.9,0.01,Rain-Thunderstorm,Light Rain,30,2012-10-12 14:06:00
9:08 AM,53.6,51.8,94,30.29,4.0,NE,17.3,21.9,0.01,Rain,Light Rain,50,2012-10-12 14:08:00
9:16 AM,53.6,51.8,94,30.29,7.0,ENE,10.4,21.9,0.02,Rain,Light Rain,70,2012-10-12 14:16:00
9:53 AM,54.0,51.1,90,30.30,9.0,East,10.4,-,0.02,,Clear,90,2012-10-12 14:53:00
11:53 AM,55.9,51.1,84,30.32,10.0,East,8.1,-,N/A,,Clear,80,2012-10-12 16:53:00
12:53 PM,55.9,51.1,84,30.29,10.0,East,9.2,-,N/A,,Partly Cloudy,90,2012-10-12 17:53:00
1:53 PM,57.0,52.0,83,30.28,10.0,SE,4.6,-,N/A,,Mostly Cloudy,130,2012-10-12 18:53:00
2:53 PM,57.0,52.0,83,30.27,10.0,SSE,4.6,-,N/A,,Overcast,150,2012-10-12 19:53:00
3:53 PM,57.0,53.1,87,30.25,10.0,East,6.9,-,N/A,,Overcast,100,2012-10-12 20:53:00
4:12 PM,57.2,53.6,88,30.24,10.0,ESE,12.7,-,N/A,,Overcast,110,2012-10-12 21:12:00
5:53 PM,57.9,53.1,84,30.22,8.0,ESE,8.1,-,N/A,,Overcast,120,2012-10-12 22:53:00
6:53 PM,57.0,54.0,89,30.23,7.0,ESE,5.8,-,N/A,,Overcast,110,2012-10-12 23:53:00
7:29 PM,57.2,53.6,88,30.24,7.0,SE,6.9,-,N/A,,Overcast,130,2012-10-13 00:29:00
7:53 PM,57.0,54.0,89,30.24,6.0,SE,8.1,-,N/A,,Overcast,130,2012-10-13 00:53:00
8:32 PM,55.4,53.6,94,30.23,4.0,ESE,6.9,-,N/A,,Overcast,120,2012-10-13 01:32:00
9:13 PM,55.4,53.6,94,30.24,2.5,SSE,4.6,-,N/A,,Overcast,150,2012-10-13 02:13:00
9:53 PM,55.0,54.0,96,30.23,1.0,SE,4.6,-,N/A,,Overcast,130,2012-10-13 02:53:00
10:06 PM,55.4,53.6,94,30.24,0.8,SE,6.9,-,N/A,,Mist,130,2012-10-13 03:06:00
10:53 PM,55.0,54.0,96,30.23,0.5,ESE,5.8,-,N/A,Fog,Fog,120,2012-10-13 03:53:00
11:53 PM,55.0,54.0,96,30.22,0.5,ESE,5.8,-,N/A,Fog,Fog,120,2012-10-13 04:53:00